sensor_id;sensor_type;location;lat;lon;timestamp;temperature;humidity
17918;DHT22;9084;50.956;3.106;2024-01-11T00:00:48;-2.70;1.00
17918;DHT22;9084;50.956;3.106;2024-01-11T00:03:16;-2.70;1.00
17918;DHT22;9084;50.956;3.106;2024-01-11T00:05:42;-2.70;1.00
17918;DHT22;9084;50.956;3.106;2024-01-11T00:08:08;-2.60;1.00
17918;DHT22;9084;50.956;3.106;2024-01-11T00:10:33;-2.60;1.00
17918;DHT22;9084;50.956;3.106;2024-01-11T00:12:59;-2.60;1.00
17918;DHT22;9084;50.956;3.106;2024-01-11T00:15:24;-2.70;1.00
17918;DHT22;9084;50.956;3.106;2024-01-11T00:17:50;-2.70;1.00
17918;DHT22;9084;50.956;3.106;2024-01-11T00:20:16;-2.70;1.00
17918;DHT22;9084;50.956;3.106;2024-01-11T00:22:46;-2.70;1.00
17918;DHT22;9084;50.956;3.106;2024-01-11T00:25:12;-2.70;1.00
17918;DHT22;9084;50.956;3.106;2024-01-11T00:27:37;-2.70;1.00
17918;DHT22;9084;50.956;3.106;2024-01-11T00:30:04;-2.70;1.00
17918;DHT22;9084;50.956;3.106;2024-01-11T00:32:30;-2.70;1.00
17918;DHT22;9084;50.956;3.106;2024-01-11T00:34:56;-2.60;1.00
17918;DHT22;9084;50.956;3.106;2024-01-11T00:37:21;-2.60;1.00
17918;DHT22;9084;50.956;3.106;2024-01-11T00:39:47;-2.60;1.00
17918;DHT22;9084;50.956;3.106;2024-01-11T00:42:13;-2.60;1.00
17918;DHT22;9084;50.956;3.106;2024-01-11T00:44:39;-2.60;1.00
17918;DHT22;9084;50.956;3.106;2024-01-11T00:47:04;-2.60;1.00
17918;DHT22;9084;50.956;3.106;2024-01-11T00:49:30;-2.60;1.00
17918;DHT22;9084;50.956;3.106;2024-01-11T00:51:55;-2.60;1.00
17918;DHT22;9084;50.956;3.106;2024-01-11T00:54:21;-2.50;1.00
17918;DHT22;9084;50.956;3.106;2024-01-11T00:56:47;-2.60;1.00
17918;DHT22;9084;50.956;3.106;2024-01-11T00:59:13;-2.60;1.00
17918;DHT22;9084;50.956;3.106;2024-01-11T01:01:38;-2.60;1.00
17918;DHT22;9084;50.956;3.106;2024-01-11T01:04:04;-2.70;1.00
17918;DHT22;9084;50.956;3.106;2024-01-11T01:06:30;-2.70;1.00
17918;DHT22;9084;50.956;3.106;2024-01-11T01:08:55;-2.60;1.00
17918;DHT22;9084;50.956;3.106;2024-01-11T01:11:21;-2.60;1.00
17918;DHT22;9084;50.956;3.106;2024-01-11T01:13:49;-2.70;1.00
17918;DHT22;9084;50.956;3.106;2024-01-11T01:16:19;-2.60;1.00
17918;DHT22;9084;50.956;3.106;2024-01-11T01:18:45;-2.60;1.00
17918;DHT22;9084;50.956;3.106;2024-01-11T01:21:10;-2.60;1.00
17918;DHT22;9084;50.956;3.106;2024-01-11T01:23:36;-2.60;1.00
17918;DHT22;9084;50.956;3.106;2024-01-11T01:26:01;-2.60;1.00
17918;DHT22;9084;50.956;3.106;2024-01-11T01:28:27;-2.60;1.00
17918;DHT22;9084;50.956;3.106;2024-01-11T01:30:53;-2.60;1.00
17918;DHT22;9084;50.956;3.106;2024-01-11T01:33:18;-2.60;1.00
17918;DHT22;9084;50.956;3.106;2024-01-11T01:35:46;-2.70;1.00
17918;DHT22;9084;50.956;3.106;2024-01-11T01:38:12;-2.70;1.00
17918;DHT22;9084;50.956;3.106;2024-01-11T01:40:38;-2.60;1.00
17918;DHT22;9084;50.956;3.106;2024-01-11T01:43:07;-2.70;1.00
17918;DHT22;9084;50.956;3.106;2024-01-11T01:45:35;-2.70;1.00
17918;DHT22;9084;50.956;3.106;2024-01-11T01:48:04;-2.70;1.00
17918;DHT22;9084;50.956;3.106;2024-01-11T01:50:32;-2.70;1.00
17918;DHT22;9084;50.956;3.106;2024-01-11T01:52:58;-2.70;1.00
17918;DHT22;9084;50.956;3.106;2024-01-11T01:55:27;-2.70;1.00
17918;DHT22;9084;50.956;3.106;2024-01-11T01:57:54;-2.70;1.00
17918;DHT22;9084;50.956;3.106;2024-01-11T02:00:21;-2.70;1.00
17918;DHT22;9084;50.956;3.106;2024-01-11T02:02:52;-2.70;1.00
17918;DHT22;9084;50.956;3.106;2024-01-11T02:05:21;-2.70;1.00
17918;DHT22;9084;50.956;3.106;2024-01-11T02:07:46;-2.70;1.00
17918;DHT22;9084;50.956;3.106;2024-01-11T02:10:12;-2.70;1.00
17918;DHT22;9084;50.956;3.106;2024-01-11T02:12:40;-2.60;1.00
17918;DHT22;9084;50.956;3.106;2024-01-11T02:15:07;-2.60;1.00
17918;DHT22;9084;50.956;3.106;2024-01-11T02:17:32;-2.60;1.00
17918;DHT22;9084;50.956;3.106;2024-01-11T02:19:58;-2.60;1.00
17918;DHT22;9084;50.956;3.106;2024-01-11T02:22:35;-2.60;1.00
17918;DHT22;9084;50.956;3.106;2024-01-11T02:25:01;-2.60;1.00
17918;DHT22;9084;50.956;3.106;2024-01-11T02:27:27;-2.60;1.00
17918;DHT22;9084;50.956;3.106;2024-01-11T02:29:53;-2.60;1.00
17918;DHT22;9084;50.956;3.106;2024-01-11T02:32:19;-2.60;1.00
17918;DHT22;9084;50.956;3.106;2024-01-11T02:34:45;-2.60;1.00
17918;DHT22;9084;50.956;3.106;2024-01-11T02:37:11;-2.60;1.00
17918;DHT22;9084;50.956;3.106;2024-01-11T02:39:37;-2.60;1.00
17918;DHT22;9084;50.956;3.106;2024-01-11T02:42:03;-2.70;1.00
17918;DHT22;9084;50.956;3.106;2024-01-11T02:44:31;-2.70;1.00
17918;DHT22;9084;50.956;3.106;2024-01-11T02:46:57;-2.60;1.00
17918;DHT22;9084;50.956;3.106;2024-01-11T02:49:23;-2.60;1.00
17918;DHT22;9084;50.956;3.106;2024-01-11T02:51:49;-2.60;1.00
17918;DHT22;9084;50.956;3.106;2024-01-11T02:54:14;-2.60;1.00
17918;DHT22;9084;50.956;3.106;2024-01-11T02:56:40;-2.60;1.00
17918;DHT22;9084;50.956;3.106;2024-01-11T02:59:06;-2.60;1.00
17918;DHT22;9084;50.956;3.106;2024-01-11T03:01:31;-2.60;1.00
17918;DHT22;9084;50.956;3.106;2024-01-11T03:03:58;-2.60;1.00
17918;DHT22;9084;50.956;3.106;2024-01-11T03:06:25;-2.60;1.00
17918;DHT22;9084;50.956;3.106;2024-01-11T03:08:54;-2.70;1.00
17918;DHT22;9084;50.956;3.106;2024-01-11T03:11:22;-2.70;1.00
17918;DHT22;9084;50.956;3.106;2024-01-11T03:13:47;-2.70;1.00
17918;DHT22;9084;50.956;3.106;2024-01-11T03:16:13;-2.60;1.00
17918;DHT22;9084;50.956;3.106;2024-01-11T03:18:39;-2.70;1.00
17918;DHT22;9084;50.956;3.106;2024-01-11T03:21:07;-2.70;1.00
17918;DHT22;9084;50.956;3.106;2024-01-11T03:23:32;-2.70;1.00
17918;DHT22;9084;50.956;3.106;2024-01-11T03:25:58;-2.70;1.00
17918;DHT22;9084;50.956;3.106;2024-01-11T03:28:24;-2.80;1.00
17918;DHT22;9084;50.956;3.106;2024-01-11T03:30:49;-2.80;27.70
17918;DHT22;9084;50.956;3.106;2024-01-11T03:33:19;-2.80;23.00
17918;DHT22;9084;50.956;3.106;2024-01-11T03:35:45;-2.80;1.00
17918;DHT22;9084;50.956;3.106;2024-01-11T03:38:13;-2.70;1.00
17918;DHT22;9084;50.956;3.106;2024-01-11T03:40:41;-2.80;1.00
17918;DHT22;9084;50.956;3.106;2024-01-11T03:43:06;-2.80;1.00
17918;DHT22;9084;50.956;3.106;2024-01-11T03:45:32;-2.80;39.20
17918;DHT22;9084;50.956;3.106;2024-01-11T03:48:03;-2.90;66.40
17918;DHT22;9084;50.956;3.106;2024-01-11T03:50:29;-2.80;99.90
17918;DHT22;9084;50.956;3.106;2024-01-11T03:52:54;-2.80;99.90
17918;DHT22;9084;50.956;3.106;2024-01-11T03:55:22;-2.80;99.90
17918;DHT22;9084;50.956;3.106;2024-01-11T03:57:51;-2.80;99.90
17918;DHT22;9084;50.956;3.106;2024-01-11T04:00:18;-2.90;99.90
17918;DHT22;9084;50.956;3.106;2024-01-11T04:02:43;-2.90;99.90
17918;DHT22;9084;50.956;3.106;2024-01-11T04:05:09;-2.90;99.90
17918;DHT22;9084;50.956;3.106;2024-01-11T04:07:35;-2.90;99.90
17918;DHT22;9084;50.956;3.106;2024-01-11T04:10:00;-3.00;99.90
17918;DHT22;9084;50.956;3.106;2024-01-11T04:12:26;-3.00;99.90
17918;DHT22;9084;50.956;3.106;2024-01-11T04:14:54;-2.90;99.90
17918;DHT22;9084;50.956;3.106;2024-01-11T04:17:22;-2.90;99.90
17918;DHT22;9084;50.956;3.106;2024-01-11T04:19:50;-2.90;99.90
17918;DHT22;9084;50.956;3.106;2024-01-11T04:22:18;-2.90;99.90
17918;DHT22;9084;50.956;3.106;2024-01-11T04:24:46;-2.90;99.90
17918;DHT22;9084;50.956;3.106;2024-01-11T04:27:11;-2.90;99.90
17918;DHT22;9084;50.956;3.106;2024-01-11T04:29:39;-2.90;99.90
17918;DHT22;9084;50.956;3.106;2024-01-11T04:32:05;-3.00;99.90
17918;DHT22;9084;50.956;3.106;2024-01-11T04:34:33;-2.90;1.00
17918;DHT22;9084;50.956;3.106;2024-01-11T04:37:03;-3.00;1.00
17918;DHT22;9084;50.956;3.106;2024-01-11T04:39:28;-3.00;1.00
17918;DHT22;9084;50.956;3.106;2024-01-11T04:41:59;-3.00;1.00
17918;DHT22;9084;50.956;3.106;2024-01-11T04:44:30;-3.00;1.00
17918;DHT22;9084;50.956;3.106;2024-01-11T04:46:58;-3.00;1.00
17918;DHT22;9084;50.956;3.106;2024-01-11T04:49:24;-3.00;1.00
17918;DHT22;9084;50.956;3.106;2024-01-11T04:51:49;-3.00;1.00
17918;DHT22;9084;50.956;3.106;2024-01-11T04:54:15;-3.00;1.00
17918;DHT22;9084;50.956;3.106;2024-01-11T04:56:41;-3.00;1.00
17918;DHT22;9084;50.956;3.106;2024-01-11T04:59:07;-3.00;1.00
17918;DHT22;9084;50.956;3.106;2024-01-11T05:01:32;-3.00;1.00
17918;DHT22;9084;50.956;3.106;2024-01-11T05:03:58;-3.00;1.00
17918;DHT22;9084;50.956;3.106;2024-01-11T05:06:23;-2.90;1.00
17918;DHT22;9084;50.956;3.106;2024-01-11T05:08:51;-3.00;1.00
17918;DHT22;9084;50.956;3.106;2024-01-11T05:11:24;-3.00;1.00
17918;DHT22;9084;50.956;3.106;2024-01-11T05:13:50;-3.10;1.00
17918;DHT22;9084;50.956;3.106;2024-01-11T05:16:24;-3.00;1.00
17918;DHT22;9084;50.956;3.106;2024-01-11T05:18:54;-3.10;1.00
17918;DHT22;9084;50.956;3.106;2024-01-11T05:21:23;-3.10;1.00
17918;DHT22;9084;50.956;3.106;2024-01-11T05:23:51;-3.10;1.00
17918;DHT22;9084;50.956;3.106;2024-01-11T05:26:18;-3.10;1.00
17918;DHT22;9084;50.956;3.106;2024-01-11T05:28:44;-3.10;1.00
17918;DHT22;9084;50.956;3.106;2024-01-11T05:31:13;-3.00;1.00
17918;DHT22;9084;50.956;3.106;2024-01-11T05:33:41;-3.10;1.00
17918;DHT22;9084;50.956;3.106;2024-01-11T05:36:07;-3.10;1.00
17918;DHT22;9084;50.956;3.106;2024-01-11T05:38:33;-3.10;1.00
17918;DHT22;9084;50.956;3.106;2024-01-11T05:41:00;-3.00;1.00
17918;DHT22;9084;50.956;3.106;2024-01-11T05:43:26;-3.10;1.00
17918;DHT22;9084;50.956;3.106;2024-01-11T05:45:54;-3.10;1.00
17918;DHT22;9084;50.956;3.106;2024-01-11T05:48:19;-3.20;1.00
17918;DHT22;9084;50.956;3.106;2024-01-11T05:50:45;-3.10;1.00
17918;DHT22;9084;50.956;3.106;2024-01-11T05:53:14;-3.10;1.00
17918;DHT22;9084;50.956;3.106;2024-01-11T05:55:40;-3.10;1.00
17918;DHT22;9084;50.956;3.106;2024-01-11T05:58:05;-3.10;1.00
17918;DHT22;9084;50.956;3.106;2024-01-11T06:00:33;-3.10;1.00
17918;DHT22;9084;50.956;3.106;2024-01-11T06:03:01;-3.10;1.00
17918;DHT22;9084;50.956;3.106;2024-01-11T06:05:27;-3.00;1.00
17918;DHT22;9084;50.956;3.106;2024-01-11T06:07:55;-3.10;1.00
17918;DHT22;9084;50.956;3.106;2024-01-11T06:10:23;-3.00;1.00
17918;DHT22;9084;50.956;3.106;2024-01-11T06:12:48;-3.10;1.00
17918;DHT22;9084;50.956;3.106;2024-01-11T06:15:14;-3.00;1.00
17918;DHT22;9084;50.956;3.106;2024-01-11T06:17:42;-3.00;1.00
17918;DHT22;9084;50.956;3.106;2024-01-11T06:20:07;-3.00;1.00
17918;DHT22;9084;50.956;3.106;2024-01-11T06:22:35;-3.00;1.00
17918;DHT22;9084;50.956;3.106;2024-01-11T06:25:01;-3.00;1.00
17918;DHT22;9084;50.956;3.106;2024-01-11T06:27:26;-3.00;1.00
17918;DHT22;9084;50.956;3.106;2024-01-11T06:29:52;-3.00;1.00
17918;DHT22;9084;50.956;3.106;2024-01-11T06:32:18;-3.00;1.00
17918;DHT22;9084;50.956;3.106;2024-01-11T06:34:44;-2.90;1.00
17918;DHT22;9084;50.956;3.106;2024-01-11T06:37:11;-3.00;1.00
17918;DHT22;9084;50.956;3.106;2024-01-11T06:39:37;-2.90;1.00
17918;DHT22;9084;50.956;3.106;2024-01-11T06:42:03;-2.90;1.00
17918;DHT22;9084;50.956;3.106;2024-01-11T06:44:31;-2.90;1.00
17918;DHT22;9084;50.956;3.106;2024-01-11T06:46:57;-2.90;1.00
17918;DHT22;9084;50.956;3.106;2024-01-11T06:49:22;-2.90;1.00
17918;DHT22;9084;50.956;3.106;2024-01-11T06:51:48;-2.90;1.00
17918;DHT22;9084;50.956;3.106;2024-01-11T06:54:16;-2.90;1.00
17918;DHT22;9084;50.956;3.106;2024-01-11T06:56:44;-2.90;1.00
17918;DHT22;9084;50.956;3.106;2024-01-11T06:59:15;-2.80;1.00
17918;DHT22;9084;50.956;3.106;2024-01-11T07:01:40;-2.90;1.00
17918;DHT22;9084;50.956;3.106;2024-01-11T07:04:06;-2.80;1.00
17918;DHT22;9084;50.956;3.106;2024-01-11T07:06:34;-2.70;1.00
17918;DHT22;9084;50.956;3.106;2024-01-11T07:08:59;-2.70;1.00
17918;DHT22;9084;50.956;3.106;2024-01-11T07:11:27;-2.70;1.00
17918;DHT22;9084;50.956;3.106;2024-01-11T07:13:53;-2.60;1.00
17918;DHT22;9084;50.956;3.106;2024-01-11T07:16:19;-2.70;1.00
17918;DHT22;9084;50.956;3.106;2024-01-11T07:18:45;-2.60;1.00
17918;DHT22;9084;50.956;3.106;2024-01-11T07:21:11;-2.60;1.00
17918;DHT22;9084;50.956;3.106;2024-01-11T07:23:39;-2.60;1.00
17918;DHT22;9084;50.956;3.106;2024-01-11T07:26:07;-2.60;1.00
17918;DHT22;9084;50.956;3.106;2024-01-11T07:28:32;-2.60;1.00
17918;DHT22;9084;50.956;3.106;2024-01-11T07:30:58;-2.60;1.00
17918;DHT22;9084;50.956;3.106;2024-01-11T07:33:26;-2.60;1.00
17918;DHT22;9084;50.956;3.106;2024-01-11T07:35:54;-2.60;1.00
17918;DHT22;9084;50.956;3.106;2024-01-11T07:38:24;-2.60;1.00
17918;DHT22;9084;50.956;3.106;2024-01-11T07:40:50;-2.60;1.00
17918;DHT22;9084;50.956;3.106;2024-01-11T07:43:18;-2.60;1.00
17918;DHT22;9084;50.956;3.106;2024-01-11T07:45:46;-2.60;1.00
17918;DHT22;9084;50.956;3.106;2024-01-11T07:48:11;-2.60;1.00
17918;DHT22;9084;50.956;3.106;2024-01-11T07:50:37;-2.60;1.00
17918;DHT22;9084;50.956;3.106;2024-01-11T07:53:05;-2.60;1.00
17918;DHT22;9084;50.956;3.106;2024-01-11T07:55:32;-2.60;1.00
17918;DHT22;9084;50.956;3.106;2024-01-11T07:58:00;-2.60;1.00
17918;DHT22;9084;50.956;3.106;2024-01-11T08:00:26;-2.60;1.00
17918;DHT22;9084;50.956;3.106;2024-01-11T08:02:51;-2.60;1.00
17918;DHT22;9084;50.956;3.106;2024-01-11T08:05:19;-2.60;1.00
17918;DHT22;9084;50.956;3.106;2024-01-11T08:07:45;-2.70;1.00
17918;DHT22;9084;50.956;3.106;2024-01-11T08:10:13;-2.70;1.00
17918;DHT22;9084;50.956;3.106;2024-01-11T08:12:38;-2.70;1.00
17918;DHT22;9084;50.956;3.106;2024-01-11T08:15:07;-2.70;1.00
17918;DHT22;9084;50.956;3.106;2024-01-11T08:17:46;-2.70;1.00
17918;DHT22;9084;50.956;3.106;2024-01-11T08:20:12;-2.70;1.00
17918;DHT22;9084;50.956;3.106;2024-01-11T08:22:41;-2.70;1.00
17918;DHT22;9084;50.956;3.106;2024-01-11T08:25:11;-2.70;1.00
17918;DHT22;9084;50.956;3.106;2024-01-11T08:27:36;-2.70;1.00
17918;DHT22;9084;50.956;3.106;2024-01-11T08:30:05;-2.70;1.00
17918;DHT22;9084;50.956;3.106;2024-01-11T08:32:33;-2.70;1.00
17918;DHT22;9084;50.956;3.106;2024-01-11T08:35:05;-2.60;1.00
17918;DHT22;9084;50.956;3.106;2024-01-11T08:37:31;-2.60;1.00
17918;DHT22;9084;50.956;3.106;2024-01-11T08:39:57;-2.60;1.00
17918;DHT22;9084;50.956;3.106;2024-01-11T08:42:23;-2.50;1.00
17918;DHT22;9084;50.956;3.106;2024-01-11T08:44:49;-2.50;1.00
17918;DHT22;9084;50.956;3.106;2024-01-11T08:47:14;-2.50;1.00
17918;DHT22;9084;50.956;3.106;2024-01-11T08:49:40;-2.40;1.00
17918;DHT22;9084;50.956;3.106;2024-01-11T08:52:07;-2.40;1.00
17918;DHT22;9084;50.956;3.106;2024-01-11T08:54:33;-2.40;1.00
17918;DHT22;9084;50.956;3.106;2024-01-11T08:57:03;-2.40;1.00
17918;DHT22;9084;50.956;3.106;2024-01-11T08:59:29;-2.40;1.00
17918;DHT22;9084;50.956;3.106;2024-01-11T09:01:55;-2.30;1.00
17918;DHT22;9084;50.956;3.106;2024-01-11T09:04:21;-2.30;1.00
17918;DHT22;9084;50.956;3.106;2024-01-11T09:06:46;-2.30;1.00
17918;DHT22;9084;50.956;3.106;2024-01-11T09:09:14;-2.20;1.00
17918;DHT22;9084;50.956;3.106;2024-01-11T09:11:40;-2.20;1.00
17918;DHT22;9084;50.956;3.106;2024-01-11T09:14:07;-2.10;1.00
17918;DHT22;9084;50.956;3.106;2024-01-11T09:16:33;-2.10;1.00
17918;DHT22;9084;50.956;3.106;2024-01-11T09:18:59;-2.00;1.00
17918;DHT22;9084;50.956;3.106;2024-01-11T09:21:28;-1.90;1.00
17918;DHT22;9084;50.956;3.106;2024-01-11T09:23:53;-1.90;1.00
17918;DHT22;9084;50.956;3.106;2024-01-11T09:26:19;-1.90;1.00
17918;DHT22;9084;50.956;3.106;2024-01-11T09:28:48;-1.80;1.00
17918;DHT22;9084;50.956;3.106;2024-01-11T09:31:16;-1.80;1.00
17918;DHT22;9084;50.956;3.106;2024-01-11T09:33:46;-1.80;1.00
17918;DHT22;9084;50.956;3.106;2024-01-11T09:36:13;-1.80;1.00
17918;DHT22;9084;50.956;3.106;2024-01-11T09:38:39;-1.80;1.00
17918;DHT22;9084;50.956;3.106;2024-01-11T09:41:09;-1.70;1.00
17918;DHT22;9084;50.956;3.106;2024-01-11T09:43:36;-1.70;1.00
17918;DHT22;9084;50.956;3.106;2024-01-11T09:46:06;-1.60;1.00
17918;DHT22;9084;50.956;3.106;2024-01-11T09:48:40;-1.50;1.00
17918;DHT22;9084;50.956;3.106;2024-01-11T09:51:10;-1.60;1.00
17918;DHT22;9084;50.956;3.106;2024-01-11T09:53:39;-1.50;1.00
17918;DHT22;9084;50.956;3.106;2024-01-11T09:56:08;-1.50;1.00
17918;DHT22;9084;50.956;3.106;2024-01-11T09:58:37;-1.40;1.00
17918;DHT22;9084;50.956;3.106;2024-01-11T10:01:09;-1.30;1.00
17918;DHT22;9084;50.956;3.106;2024-01-11T10:03:35;-1.30;1.00
17918;DHT22;9084;50.956;3.106;2024-01-11T10:06:04;-1.30;1.00
17918;DHT22;9084;50.956;3.106;2024-01-11T10:08:31;-1.30;1.00
17918;DHT22;9084;50.956;3.106;2024-01-11T10:10:58;-1.30;1.00
17918;DHT22;9084;50.956;3.106;2024-01-11T10:13:28;-1.10;1.00
17918;DHT22;9084;50.956;3.106;2024-01-11T10:16:08;-1.10;1.00
17918;DHT22;9084;50.956;3.106;2024-01-11T10:18:35;-1.00;1.00
17918;DHT22;9084;50.956;3.106;2024-01-11T10:21:03;-1.00;1.00
17918;DHT22;9084;50.956;3.106;2024-01-11T10:23:29;-0.90;1.00
17918;DHT22;9084;50.956;3.106;2024-01-11T10:25:56;-0.80;1.00
17918;DHT22;9084;50.956;3.106;2024-01-11T10:28:22;-0.70;1.00
17918;DHT22;9084;50.956;3.106;2024-01-11T10:30:50;-0.70;1.00
17918;DHT22;9084;50.956;3.106;2024-01-11T10:33:19;-0.70;1.00
17918;DHT22;9084;50.956;3.106;2024-01-11T10:35:46;-0.70;1.00
17918;DHT22;9084;50.956;3.106;2024-01-11T10:38:14;-0.60;99.90
17918;DHT22;9084;50.956;3.106;2024-01-11T10:40:43;-0.60;99.90
17918;DHT22;9084;50.956;3.106;2024-01-11T10:43:10;-0.60;1.00
17918;DHT22;9084;50.956;3.106;2024-01-11T10:45:37;-0.50;1.00
17918;DHT22;9084;50.956;3.106;2024-01-11T10:48:15;-0.50;99.90
17918;DHT22;9084;50.956;3.106;2024-01-11T10:50:50;-0.40;99.90
17918;DHT22;9084;50.956;3.106;2024-01-11T10:53:46;-0.30;99.90
17918;DHT22;9084;50.956;3.106;2024-01-11T10:56:13;-0.30;99.90
17918;DHT22;9084;50.956;3.106;2024-01-11T10:58:42;-0.30;99.90
17918;DHT22;9084;50.956;3.106;2024-01-11T11:01:10;-0.30;99.90
17918;DHT22;9084;50.956;3.106;2024-01-11T11:03:36;-0.20;99.90
17918;DHT22;9084;50.956;3.106;2024-01-11T11:06:04;-0.20;99.90
17918;DHT22;9084;50.956;3.106;2024-01-11T11:08:31;-0.20;95.20
17918;DHT22;9084;50.956;3.106;2024-01-11T11:11:02;-0.10;99.90
17918;DHT22;9084;50.956;3.106;2024-01-11T11:13:31;-0.10;20.70
17918;DHT22;9084;50.956;3.106;2024-01-11T11:15:57;-0.10;64.20
17918;DHT22;9084;50.956;3.106;2024-01-11T11:18:24;0.00;1.00
17918;DHT22;9084;50.956;3.106;2024-01-11T11:20:51;0.00;1.00
17918;DHT22;9084;50.956;3.106;2024-01-11T11:23:18;0.10;1.00
17918;DHT22;9084;50.956;3.106;2024-01-11T11:25:47;0.20;1.00
17918;DHT22;9084;50.956;3.106;2024-01-11T11:28:14;0.30;1.00
17918;DHT22;9084;50.956;3.106;2024-01-11T11:30:42;0.50;99.90
17918;DHT22;9084;50.956;3.106;2024-01-11T11:35:43;0.50;1.00
17918;DHT22;9084;50.956;3.106;2024-01-11T11:38:20;0.60;1.00
17918;DHT22;9084;50.956;3.106;2024-01-11T11:40:47;0.70;1.00
17918;DHT22;9084;50.956;3.106;2024-01-11T11:43:15;0.80;1.00
17918;DHT22;9084;50.956;3.106;2024-01-11T11:45:42;0.80;1.00
17918;DHT22;9084;50.956;3.106;2024-01-11T11:51:18;0.90;1.00
17918;DHT22;9084;50.956;3.106;2024-01-11T11:53:46;0.90;1.00
17918;DHT22;9084;50.956;3.106;2024-01-11T11:56:13;0.90;1.00
17918;DHT22;9084;50.956;3.106;2024-01-11T11:58:45;0.90;1.00
17918;DHT22;9084;50.956;3.106;2024-01-11T12:01:11;1.00;1.00
17918;DHT22;9084;50.956;3.106;2024-01-11T12:03:41;0.90;99.90
17918;DHT22;9084;50.956;3.106;2024-01-11T12:06:15;1.00;99.90
17918;DHT22;9084;50.956;3.106;2024-01-11T12:08:45;1.00;99.90
17918;DHT22;9084;50.956;3.106;2024-01-11T12:11:23;1.00;1.00
17918;DHT22;9084;50.956;3.106;2024-01-11T12:13:50;1.00;1.00
17918;DHT22;9084;50.956;3.106;2024-01-11T12:16:16;1.00;1.00
17918;DHT22;9084;50.956;3.106;2024-01-11T12:18:44;1.10;99.90
17918;DHT22;9084;50.956;3.106;2024-01-11T12:21:09;1.10;1.00
17918;DHT22;9084;50.956;3.106;2024-01-11T12:23:38;1.10;1.00
17918;DHT22;9084;50.956;3.106;2024-01-11T12:26:08;1.10;1.00
17918;DHT22;9084;50.956;3.106;2024-01-11T12:28:38;1.20;99.90
17918;DHT22;9084;50.956;3.106;2024-01-11T12:31:05;1.20;99.90
17918;DHT22;9084;50.956;3.106;2024-01-11T12:33:30;1.20;57.00
17918;DHT22;9084;50.956;3.106;2024-01-11T12:35:57;1.30;1.00
17918;DHT22;9084;50.956;3.106;2024-01-11T12:38:23;1.30;1.00
17918;DHT22;9084;50.956;3.106;2024-01-11T12:40:53;1.30;99.90
17918;DHT22;9084;50.956;3.106;2024-01-11T12:43:21;1.40;1.00
17918;DHT22;9084;50.956;3.106;2024-01-11T12:45:47;1.40;99.90
17918;DHT22;9084;50.956;3.106;2024-01-11T12:48:18;1.50;99.90
17918;DHT22;9084;50.956;3.106;2024-01-11T12:50:47;1.50;99.90
17918;DHT22;9084;50.956;3.106;2024-01-11T12:53:14;1.60;59.90
17918;DHT22;9084;50.956;3.106;2024-01-11T12:56:01;1.60;1.00
17918;DHT22;9084;50.956;3.106;2024-01-11T12:58:33;1.70;1.00
17918;DHT22;9084;50.956;3.106;2024-01-11T13:01:01;1.70;1.00
17918;DHT22;9084;50.956;3.106;2024-01-11T13:03:28;1.70;1.00
17918;DHT22;9084;50.956;3.106;2024-01-11T13:05:57;1.70;91.30
17918;DHT22;9084;50.956;3.106;2024-01-11T13:08:22;1.80;1.00
17918;DHT22;9084;50.956;3.106;2024-01-11T13:10:49;1.70;99.90
17918;DHT22;9084;50.956;3.106;2024-01-11T13:13:15;1.80;16.20
17918;DHT22;9084;50.956;3.106;2024-01-11T13:15:40;1.80;1.00
17918;DHT22;9084;50.956;3.106;2024-01-11T13:18:06;1.90;45.30
17918;DHT22;9084;50.956;3.106;2024-01-11T13:20:34;1.90;1.00
17918;DHT22;9084;50.956;3.106;2024-01-11T13:23:17;1.90;1.00
17918;DHT22;9084;50.956;3.106;2024-01-11T13:25:47;1.90;1.00
17918;DHT22;9084;50.956;3.106;2024-01-11T13:28:13;2.00;99.90
17918;DHT22;9084;50.956;3.106;2024-01-11T13:30:45;2.00;99.90
17918;DHT22;9084;50.956;3.106;2024-01-11T13:33:12;2.10;1.00
17918;DHT22;9084;50.956;3.106;2024-01-11T13:35:39;2.10;1.00
17918;DHT22;9084;50.956;3.106;2024-01-11T13:38:07;2.10;99.90
17918;DHT22;9084;50.956;3.106;2024-01-11T13:40:33;2.20;99.90
17918;DHT22;9084;50.956;3.106;2024-01-11T13:42:59;2.10;1.00
17918;DHT22;9084;50.956;3.106;2024-01-11T13:45:26;2.10;1.00
17918;DHT22;9084;50.956;3.106;2024-01-11T13:47:52;2.20;1.00
17918;DHT22;9084;50.956;3.106;2024-01-11T13:50:23;2.20;1.00
17918;DHT22;9084;50.956;3.106;2024-01-11T13:52:49;2.40;1.00
17918;DHT22;9084;50.956;3.106;2024-01-11T13:55:16;2.20;99.90
17918;DHT22;9084;50.956;3.106;2024-01-11T13:57:42;2.20;99.90
17918;DHT22;9084;50.956;3.106;2024-01-11T14:00:11;2.20;99.90
17918;DHT22;9084;50.956;3.106;2024-01-11T14:02:40;2.20;1.00
17918;DHT22;9084;50.956;3.106;2024-01-11T14:05:09;2.20;1.00
17918;DHT22;9084;50.956;3.106;2024-01-11T14:07:37;2.20;1.00
17918;DHT22;9084;50.956;3.106;2024-01-11T14:10:07;2.20;1.00
17918;DHT22;9084;50.956;3.106;2024-01-11T14:12:34;2.20;1.00
17918;DHT22;9084;50.956;3.106;2024-01-11T14:15:02;2.20;1.00
17918;DHT22;9084;50.956;3.106;2024-01-11T14:17:31;2.20;99.90
17918;DHT22;9084;50.956;3.106;2024-01-11T14:19:57;2.10;99.90
17918;DHT22;9084;50.956;3.106;2024-01-11T14:22:23;2.10;99.90
17918;DHT22;9084;50.956;3.106;2024-01-11T14:24:49;2.10;1.00
17918;DHT22;9084;50.956;3.106;2024-01-11T14:27:15;2.10;1.00
17918;DHT22;9084;50.956;3.106;2024-01-11T14:29:41;2.10;1.00
17918;DHT22;9084;50.956;3.106;2024-01-11T14:32:06;2.10;99.90
17918;DHT22;9084;50.956;3.106;2024-01-11T14:34:34;2.10;99.90
17918;DHT22;9084;50.956;3.106;2024-01-11T14:37:00;2.20;1.00
17918;DHT22;9084;50.956;3.106;2024-01-11T14:39:26;2.20;1.00
17918;DHT22;9084;50.956;3.106;2024-01-11T14:41:54;2.40;1.00
17918;DHT22;9084;50.956;3.106;2024-01-11T14:44:22;2.40;1.00
17918;DHT22;9084;50.956;3.106;2024-01-11T14:46:47;2.50;1.00
17918;DHT22;9084;50.956;3.106;2024-01-11T14:49:15;2.60;1.00
17918;DHT22;9084;50.956;3.106;2024-01-11T14:51:41;2.70;1.00
17918;DHT22;9084;50.956;3.106;2024-01-11T14:54:06;2.70;1.00
17918;DHT22;9084;50.956;3.106;2024-01-11T14:56:33;2.70;1.00
17918;DHT22;9084;50.956;3.106;2024-01-11T14:59:00;2.70;1.00
17918;DHT22;9084;50.956;3.106;2024-01-11T15:01:29;2.70;1.00
17918;DHT22;9084;50.956;3.106;2024-01-11T15:03:56;2.70;1.00
17918;DHT22;9084;50.956;3.106;2024-01-11T15:06:21;2.60;1.00
17918;DHT22;9084;50.956;3.106;2024-01-11T15:08:49;2.60;1.00
17918;DHT22;9084;50.956;3.106;2024-01-11T15:11:15;2.60;1.00
17918;DHT22;9084;50.956;3.106;2024-01-11T15:13:40;2.60;1.00
17918;DHT22;9084;50.956;3.106;2024-01-11T15:16:06;2.60;1.00
17918;DHT22;9084;50.956;3.106;2024-01-11T15:18:34;2.50;1.00
17918;DHT22;9084;50.956;3.106;2024-01-11T15:20:59;2.50;1.00
17918;DHT22;9084;50.956;3.106;2024-01-11T15:23:25;2.50;1.00
17918;DHT22;9084;50.956;3.106;2024-01-11T15:25:53;2.50;1.00
17918;DHT22;9084;50.956;3.106;2024-01-11T15:28:21;2.40;1.00
17918;DHT22;9084;50.956;3.106;2024-01-11T15:30:47;2.40;1.00
17918;DHT22;9084;50.956;3.106;2024-01-11T15:33:14;2.40;1.00
17918;DHT22;9084;50.956;3.106;2024-01-11T15:35:40;2.40;1.00
17918;DHT22;9084;50.956;3.106;2024-01-11T15:38:08;2.40;1.00
17918;DHT22;9084;50.956;3.106;2024-01-11T15:40:33;2.40;1.00
17918;DHT22;9084;50.956;3.106;2024-01-11T15:43:01;2.40;1.00
17918;DHT22;9084;50.956;3.106;2024-01-11T15:45:29;2.40;1.00
17918;DHT22;9084;50.956;3.106;2024-01-11T15:47:54;2.30;1.00
17918;DHT22;9084;50.956;3.106;2024-01-11T15:50:22;2.40;1.00
17918;DHT22;9084;50.956;3.106;2024-01-11T15:52:48;2.30;1.00
17918;DHT22;9084;50.956;3.106;2024-01-11T15:55:13;2.30;1.00
17918;DHT22;9084;50.956;3.106;2024-01-11T15:57:39;2.30;8.10
17918;DHT22;9084;50.956;3.106;2024-01-11T16:00:05;2.30;10.90
17918;DHT22;9084;50.956;3.106;2024-01-11T16:02:35;2.30;14.90
17918;DHT22;9084;50.956;3.106;2024-01-11T16:05:05;2.30;29.00
17918;DHT22;9084;50.956;3.106;2024-01-11T16:07:33;2.20;25.00
17918;DHT22;9084;50.956;3.106;2024-01-11T16:09:59;2.30;35.10